William P Hobby Airport
KHOU : now visible

Aeroporto :











RITROVATECI SU...

 
LOGIN :

Iscrizione | Disclaimer

   EN    FR    IT 

 









Sommario :    VFR   VFR Marginale   IFR   IFR Intensivo   IFR Molto Intensivo
Visibilità : 
Base nubi : 
>= 8 km
>= 3000ft
5 / 8 km
1000 / 3000 ft
1500m / 5 km
500 / 1000 ft
800 / 1500m
200 / 500 ft
< 800m
< 200 ft
Simboli :   Temporali  Nebbia  Neve Forte  Precipitazioni Forti  Vento > 20 kt







- Altitudine del aeroporto : 46 ft
- Codice IATA : HOU


KHOU - William P Hobby

ULTIMO METAR :
  • 252253Z 24007KT 10SM SCT050 29/16 A3002 RMK AO2 SLP172 T02940161

METARs OBSOLETI :
  • 252153Z 25007KT 10SM SCT040 29/17 A3003 RMK AO2 SLP174 T02890172
  • 252053Z 31004KT 10SM BKN039 28/18 A3004 RMK AO2 SLP177 T02780178 58025

TAF KHOU
Valido dal 26 a 00 ore il 27 a 00 ore UTC


252321Z 2600/2624 26007KT P6SM VCSH SCT050
TEMPO 2600/2602 6SM -SHRA BKN050
FM260200 36007KT P6SM SCT250
FM261200 03008KT P6SM SCT250
FIR KZHU / America del Nord



MetMap, La meteo Aeronautica in un colpo d'occhio ! - Copyright ORBIFLY Dicembre 2007 - Disclaimer

ORBIFLY MET'MAP TEAM :

Programmazione e sviluppo : Alexandra Zaïnal
Concezione e sviluppo : Baudouin d'Aumeries
Co-Programmazione e sviluppo : Marc-Olivier Méhu
Supporto tecnico e logistico : Manuel Goepfert
Aiuto per la traduzione : Arnaldo La Scala

Contatto : metmap@orbifly.com




FONTI E CREDITI :

   NOAA       Earth
Advisory